Accueil
METAR-TAF:

METAR-TAF

Aéroports :

Saint-Moritz, Suisse

Aéroport de Samedan-Engadin

latitude: 46-32-03N, longitude: 9-53-03E, altitude: 1707 m

Observation

Le bulletin a été fait il y a 27 minutes, à 18:50 UTC
Vent 4 kt de direction variable
Température 1°C
Humidité 93%
Pression 990 hPa
Visibilité: 4500 m
neige faible

METAR: LSZS 111850Z AUTO VRB04KT 4500 -SN VV007 01/00 Q0990

Heure: 20:17 (19:17 UTC)

Prévision

Le bulletin a été fait il y a 4 heures et 52 minutes, à 14:25 UTC
Prévision valable du 11 à 15 UTC au 11 à 24 UTC
Vent 20 kt de sud/sud-ouest avec des rafales jusqu'à 31 kt
Visibilité: 2500 m
à une hauteur de 1000 ft
neige, pluie
Temporairement
du 11 à 15 UTC au 11 à 24 UTC
Visibilité: 0500 m
à une hauteur de 300 ft
neige

TAF: LSZS 111425Z 1115/1124 20020G31KT 2500 SNRA VV010 TX02/1115Z TEMPO 1115/1124 0500 SN VV003

Observations et prévisions météorologiques de plus de 4000 aéroports (messages METAR et TAF).

Les stations disponibles sont représentées par des disques jaunes et rouges sur la carte.

Passer la souris dessus pour voir le nom de la station.

Cliquer dessus pour voir les observations et prévisions météorologiques.

Pour changer de carte: cliquez sur les boutons verts avec une croix noire pour zoomer, sur le bouton vert avec un tiret pour effectuer un zoom arrière, ou sur les flèches vertes pour les cartes adjacentes.


METAR-TAF: